sensor_id;sensor_type;location;lat;lon;timestamp;pressure;altitude;pressure_sealevel;temperature;humidity
8160;BME280;27404;52.398;9.646;2024-01-15T00:00:21;99027.25;;;-0.49;100.00
8160;BME280;27404;52.398;9.646;2024-01-15T00:02:47;99024.81;;;-0.44;100.00
8160;BME280;27404;52.398;9.646;2024-01-15T00:05:12;99025.22;;;-0.40;100.00
8160;BME280;27404;52.398;9.646;2024-01-15T00:07:38;99013.25;;;-0.38;100.00
8160;BME280;27404;52.398;9.646;2024-01-15T00:10:04;99009.94;;;-0.26;100.00
8160;BME280;27404;52.398;9.646;2024-01-15T00:12:29;99006.84;;;-0.37;100.00
8160;BME280;27404;52.398;9.646;2024-01-15T00:14:54;99006.00;;;-0.37;100.00
8160;BME280;27404;52.398;9.646;2024-01-15T00:17:20;99007.03;;;-0.45;100.00
8160;BME280;27404;52.398;9.646;2024-01-15T00:19:46;98989.25;;;-0.53;100.00
8160;BME280;27404;52.398;9.646;2024-01-15T00:22:11;99000.81;;;-0.52;100.00
8160;BME280;27404;52.398;9.646;2024-01-15T00:24:36;98990.50;;;-0.49;100.00
8160;BME280;27404;52.398;9.646;2024-01-15T00:27:02;99007.84;;;-0.45;100.00
8160;BME280;27404;52.398;9.646;2024-01-15T00:29:28;99006.63;;;-0.42;100.00
8160;BME280;27404;52.398;9.646;2024-01-15T00:31:54;99005.59;;;-0.41;100.00
8160;BME280;27404;52.398;9.646;2024-01-15T00:34:19;98994.22;;;-0.36;100.00
8160;BME280;27404;52.398;9.646;2024-01-15T00:36:44;98979.56;;;-0.40;100.00
8160;BME280;27404;52.398;9.646;2024-01-15T00:39:10;98973.97;;;-0.46;100.00
8160;BME280;27404;52.398;9.646;2024-01-15T00:41:36;98961.41;;;-0.45;100.00
8160;BME280;27404;52.398;9.646;2024-01-15T00:44:01;98960.16;;;-0.49;100.00
8160;BME280;27404;52.398;9.646;2024-01-15T00:46:28;98965.28;;;-0.61;100.00
8160;BME280;27404;52.398;9.646;2024-01-15T00:48:53;98968.19;;;-0.69;100.00
8160;BME280;27404;52.398;9.646;2024-01-15T00:51:19;98978.69;;;-0.68;100.00
8160;BME280;27404;52.398;9.646;2024-01-15T00:53:44;98963.00;;;-0.64;100.00
8160;BME280;27404;52.398;9.646;2024-01-15T00:56:10;98968.41;;;-0.57;100.00
8160;BME280;27404;52.398;9.646;2024-01-15T00:58:35;98948.59;;;-0.56;100.00
8160;BME280;27404;52.398;9.646;2024-01-15T01:01:01;98942.19;;;-0.55;100.00
8160;BME280;27404;52.398;9.646;2024-01-15T01:03:26;98943.44;;;-0.51;100.00
8160;BME280;27404;52.398;9.646;2024-01-15T01:05:51;98949.19;;;-0.48;100.00
8160;BME280;27404;52.398;9.646;2024-01-15T01:08:17;98953.13;;;-0.50;100.00
8160;BME280;27404;52.398;9.646;2024-01-15T01:10:42;98947.34;;;-0.54;100.00
8160;BME280;27404;52.398;9.646;2024-01-15T01:13:08;98960.97;;;-0.55;100.00
8160;BME280;27404;52.398;9.646;2024-01-15T01:15:34;98947.53;;;-0.62;100.00
8160;BME280;27404;52.398;9.646;2024-01-15T01:17:59;98947.34;;;-0.61;100.00
8160;BME280;27404;52.398;9.646;2024-01-15T01:20:25;98945.28;;;-0.58;100.00
8160;BME280;27404;52.398;9.646;2024-01-15T01:22:50;98956.41;;;-0.55;100.00
8160;BME280;27404;52.398;9.646;2024-01-15T01:25:16;98938.66;;;-0.63;100.00
8160;BME280;27404;52.398;9.646;2024-01-15T01:27:41;98927.53;;;-0.60;100.00
8160;BME280;27404;52.398;9.646;2024-01-15T01:30:07;98934.13;;;-0.49;100.00
8160;BME280;27404;52.398;9.646;2024-01-15T01:32:32;98936.81;;;-0.55;100.00
8160;BME280;27404;52.398;9.646;2024-01-15T01:34:58;98921.13;;;-0.58;100.00
8160;BME280;27404;52.398;9.646;2024-01-15T01:37:23;98910.78;;;-0.62;100.00
8160;BME280;27404;52.398;9.646;2024-01-15T01:39:49;98916.78;;;-0.53;100.00
8160;BME280;27404;52.398;9.646;2024-01-15T01:42:14;98922.38;;;-0.54;100.00
8160;BME280;27404;52.398;9.646;2024-01-15T01:44:40;98921.75;;;-0.56;100.00
8160;BME280;27404;52.398;9.646;2024-01-15T01:47:05;98928.16;;;-0.57;100.00
8160;BME280;27404;52.398;9.646;2024-01-15T01:49:31;98908.94;;;-0.61;100.00
8160;BME280;27404;52.398;9.646;2024-01-15T01:51:58;98907.09;;;-0.61;100.00
8160;BME280;27404;52.398;9.646;2024-01-15T01:54:25;98906.06;;;-0.60;100.00
8160;BME280;27404;52.398;9.646;2024-01-15T01:56:52;98891.19;;;-0.55;100.00
8160;BME280;27404;52.398;9.646;2024-01-15T01:59:17;98908.31;;;-0.50;100.00
8160;BME280;27404;52.398;9.646;2024-01-15T02:01:44;98896.97;;;-0.45;100.00
8160;BME280;27404;52.398;9.646;2024-01-15T02:04:11;98904.22;;;-0.39;100.00
8160;BME280;27404;52.398;9.646;2024-01-15T02:06:37;98904.19;;;-0.32;100.00
8160;BME280;27404;52.398;9.646;2024-01-15T02:09:03;98908.72;;;-0.26;100.00
8160;BME280;27404;52.398;9.646;2024-01-15T02:11:28;98899.84;;;-0.26;100.00
8160;BME280;27404;52.398;9.646;2024-01-15T02:13:54;98897.34;;;-0.21;100.00
8160;BME280;27404;52.398;9.646;2024-01-15T02:16:20;98899.84;;;-0.20;100.00
8160;BME280;27404;52.398;9.646;2024-01-15T02:18:46;98918.22;;;-0.17;100.00
8160;BME280;27404;52.398;9.646;2024-01-15T02:21:12;98911.59;;;-0.14;100.00
8160;BME280;27404;52.398;9.646;2024-01-15T02:23:38;98905.44;;;-0.14;100.00
8160;BME280;27404;52.398;9.646;2024-01-15T02:26:05;98903.75;;;-0.09;100.00
8160;BME280;27404;52.398;9.646;2024-01-15T02:28:30;98903.13;;;-0.04;100.00
8160;BME280;27404;52.398;9.646;2024-01-15T02:30:57;98889.91;;;-0.06;100.00
8160;BME280;27404;52.398;9.646;2024-01-15T02:33:23;98897.34;;;-0.01;100.00
8160;BME280;27404;52.398;9.646;2024-01-15T02:35:48;98899.00;;;-0.07;100.00
8160;BME280;27404;52.398;9.646;2024-01-15T02:38:16;98898.38;;;-0.09;100.00
8160;BME280;27404;52.398;9.646;2024-01-15T02:40:43;98896.72;;;-0.03;100.00
8160;BME280;27404;52.398;9.646;2024-01-15T02:43:09;98903.94;;;-0.04;100.00
8160;BME280;27404;52.398;9.646;2024-01-15T02:45:34;98905.81;;;0.03;100.00
8160;BME280;27404;52.398;9.646;2024-01-15T02:48:00;98895.69;;;-0.02;100.00
8160;BME280;27404;52.398;9.646;2024-01-15T02:50:26;98887.41;;;-0.01;100.00
8160;BME280;27404;52.398;9.646;2024-01-15T02:52:51;98884.13;;;-0.03;100.00
8160;BME280;27404;52.398;9.646;2024-01-15T02:55:17;98893.81;;;-0.02;100.00
8160;BME280;27404;52.398;9.646;2024-01-15T02:57:43;98886.78;;;-0.03;100.00
8160;BME280;27404;52.398;9.646;2024-01-15T03:00:09;98877.72;;;-0.02;100.00
8160;BME280;27404;52.398;9.646;2024-01-15T03:02:39;98880.59;;;0.04;100.00
8160;BME280;27404;52.398;9.646;2024-01-15T03:05:06;98873.38;;;-0.03;100.00
8160;BME280;27404;52.398;9.646;2024-01-15T03:07:33;98882.50;;;-0.10;100.00
8160;BME280;27404;52.398;9.646;2024-01-15T03:09:58;98876.09;;;-0.23;100.00
8160;BME280;27404;52.398;9.646;2024-01-15T03:12:24;98886.41;;;-0.20;100.00
8160;BME280;27404;52.398;9.646;2024-01-15T03:14:49;98884.78;;;-0.21;100.00
8160;BME280;27404;52.398;9.646;2024-01-15T03:17:15;98874.03;;;-0.21;100.00
8160;BME280;27404;52.398;9.646;2024-01-15T03:19:40;98886.81;;;-0.16;100.00
8160;BME280;27404;52.398;9.646;2024-01-15T03:22:05;98882.50;;;-0.10;100.00
8160;BME280;27404;52.398;9.646;2024-01-15T03:24:33;98877.72;;;-0.08;100.00
8160;BME280;27404;52.398;9.646;2024-01-15T03:26:59;98880.81;;;-0.05;100.00
8160;BME280;27404;52.398;9.646;2024-01-15T03:29:25;98885.16;;;-0.04;100.00
8160;BME280;27404;52.398;9.646;2024-01-15T03:31:51;98885.38;;;-0.05;100.00
8160;BME280;27404;52.398;9.646;2024-01-15T03:34:17;98879.13;;;0.01;100.00
8160;BME280;27404;52.398;9.646;2024-01-15T03:36:42;98884.50;;;0.01;100.00
8160;BME280;27404;52.398;9.646;2024-01-15T03:39:07;98906.63;;;0.03;100.00
8160;BME280;27404;52.398;9.646;2024-01-15T03:41:33;98895.06;;;0.03;100.00
8160;BME280;27404;52.398;9.646;2024-01-15T03:43:58;98903.31;;;0.01;100.00
8160;BME280;27404;52.398;9.646;2024-01-15T03:46:24;98906.84;;;0.02;100.00
8160;BME280;27404;52.398;9.646;2024-01-15T03:48:50;98892.16;;;0.04;100.00
8160;BME280;27404;52.398;9.646;2024-01-15T03:51:17;98893.19;;;0.03;100.00
8160;BME280;27404;52.398;9.646;2024-01-15T03:53:43;98879.75;;;0.03;100.00
8160;BME280;27404;52.398;9.646;2024-01-15T03:56:08;98881.81;;;0.08;100.00
8160;BME280;27404;52.398;9.646;2024-01-15T03:58:34;98901.03;;;0.11;100.00
8160;BME280;27404;52.398;9.646;2024-01-15T04:00:59;98895.03;;;0.16;100.00
8160;BME280;27404;52.398;9.646;2024-01-15T04:03:24;98907.63;;;0.16;100.00
8160;BME280;27404;52.398;9.646;2024-01-15T04:05:50;98872.88;;;0.21;100.00
8160;BME280;27404;52.398;9.646;2024-01-15T04:08:15;98879.53;;;0.18;100.00
8160;BME280;27404;52.398;9.646;2024-01-15T04:10:41;98898.09;;;0.20;100.00
8160;BME280;27404;52.398;9.646;2024-01-15T04:13:06;98893.78;;;0.19;100.00
8160;BME280;27404;52.398;9.646;2024-01-15T04:15:32;98890.66;;;0.22;100.00
8160;BME280;27404;52.398;9.646;2024-01-15T04:17:57;98884.88;;;0.25;100.00
8160;BME280;27404;52.398;9.646;2024-01-15T04:20:23;98895.63;;;0.25;100.00
8160;BME280;27404;52.398;9.646;2024-01-15T04:22:48;98891.09;;;0.25;100.00
8160;BME280;27404;52.398;9.646;2024-01-15T04:25:14;98892.31;;;0.23;100.00
8160;BME280;27404;52.398;9.646;2024-01-15T04:27:39;98887.78;;;0.23;100.00
8160;BME280;27404;52.398;9.646;2024-01-15T04:30:05;98894.63;;;0.19;100.00
8160;BME280;27404;52.398;9.646;2024-01-15T04:32:31;98877.44;;;0.20;100.00
8160;BME280;27404;52.398;9.646;2024-01-15T04:34:57;98884.25;;;0.23;100.00
8160;BME280;27404;52.398;9.646;2024-01-15T04:37:22;98894.38;;;0.21;100.00
8160;BME280;27404;52.398;9.646;2024-01-15T04:39:48;98892.13;;;0.24;100.00
8160;BME280;27404;52.398;9.646;2024-01-15T04:42:13;98892.13;;;0.24;100.00
8160;BME280;27404;52.398;9.646;2024-01-15T04:44:39;98889.84;;;0.21;100.00
8160;BME280;27404;52.398;9.646;2024-01-15T04:47:04;98892.31;;;0.23;100.00
8160;BME280;27404;52.398;9.646;2024-01-15T04:49:30;98893.56;;;0.20;100.00
8160;BME280;27404;52.398;9.646;2024-01-15T04:51:55;98893.34;;;0.22;100.00
8160;BME280;27404;52.398;9.646;2024-01-15T04:54:20;98902.22;;;0.29;100.00
8160;BME280;27404;52.398;9.646;2024-01-15T04:56:46;98887.59;;;0.18;100.00
8160;BME280;27404;52.398;9.646;2024-01-15T04:59:12;98887.97;;;0.22;100.00
8160;BME280;27404;52.398;9.646;2024-01-15T05:01:38;98885.53;;;0.07;100.00
8160;BME280;27404;52.398;9.646;2024-01-15T05:04:03;98887.63;;;-0.02;100.00
8160;BME280;27404;52.398;9.646;2024-01-15T05:06:29;98893.19;;;-0.04;100.00
8160;BME280;27404;52.398;9.646;2024-01-15T05:08:54;98887.44;;;-0.07;100.00
8160;BME280;27404;52.398;9.646;2024-01-15T05:11:20;98878.53;;;-0.01;100.00
8160;BME280;27404;52.398;9.646;2024-01-15T05:13:45;98875.44;;;-0.05;100.00
8160;BME280;27404;52.398;9.646;2024-01-15T05:16:11;98888.84;;;0.02;100.00
8160;BME280;27404;52.398;9.646;2024-01-15T05:18:36;98874.38;;;0.03;100.00
8160;BME280;27404;52.398;9.646;2024-01-15T05:21:04;98877.28;;;0.02;100.00
8160;BME280;27404;52.398;9.646;2024-01-15T05:23:34;98873.78;;;-0.06;100.00
8160;BME280;27404;52.398;9.646;2024-01-15T05:25:59;98866.97;;;-0.02;100.00
8160;BME280;27404;52.398;9.646;2024-01-15T05:28:25;98872.75;;;-0.05;100.00
8160;BME280;27404;52.398;9.646;2024-01-15T05:30:50;98865.72;;;-0.06;100.00
8160;BME280;27404;52.398;9.646;2024-01-15T05:33:17;98872.56;;;-0.10;100.00
8160;BME280;27404;52.398;9.646;2024-01-15T05:35:42;98873.78;;;-0.06;100.00
8160;BME280;27404;52.398;9.646;2024-01-15T05:38:08;98867.38;;;-0.05;100.00
8160;BME280;27404;52.398;9.646;2024-01-15T05:40:33;98859.94;;;-0.03;100.00
8160;BME280;27404;52.398;9.646;2024-01-15T05:42:59;98872.94;;;0.01;100.00
8160;BME280;27404;52.398;9.646;2024-01-15T05:45:26;98863.25;;;-0.01;100.00
8160;BME280;27404;52.398;9.646;2024-01-15T05:47:52;98863.25;;;-0.01;100.00
8160;BME280;27404;52.398;9.646;2024-01-15T05:50:17;98867.38;;;-0.05;100.00
8160;BME280;27404;52.398;9.646;2024-01-15T05:52:43;98862.63;;;-0.03;100.00
8160;BME280;27404;52.398;9.646;2024-01-15T05:55:08;98862.81;;;0.03;100.00
8160;BME280;27404;52.398;9.646;2024-01-15T05:57:35;98859.91;;;0.04;100.00
8160;BME280;27404;52.398;9.646;2024-01-15T06:00:00;98890.50;;;0.03;100.00
8160;BME280;27404;52.398;9.646;2024-01-15T06:02:26;98877.72;;;-0.02;100.00
8160;BME280;27404;52.398;9.646;2024-01-15T06:04:51;98863.00;;;0.01;100.00
8160;BME280;27404;52.398;9.646;2024-01-15T06:07:17;98870.69;;;-0.03;100.00
8160;BME280;27404;52.398;9.646;2024-01-15T06:09:42;98878.94;;;0.03;100.00
8160;BME280;27404;52.398;9.646;2024-01-15T06:12:08;98872.13;;;0.00;100.00
8160;BME280;27404;52.398;9.646;2024-01-15T06:14:33;98874.59;;;0.02;100.00
8160;BME280;27404;52.398;9.646;2024-01-15T06:16:59;98865.72;;;-0.06;100.00
8160;BME280;27404;52.398;9.646;2024-01-15T06:19:24;98868.22;;;-0.04;100.00
8160;BME280;27404;52.398;9.646;2024-01-15T06:21:50;98867.19;;;-0.10;100.00
8160;BME280;27404;52.398;9.646;2024-01-15T06:24:15;98866.78;;;-0.13;100.00
8160;BME280;27404;52.398;9.646;2024-01-15T06:26:43;98864.50;;;-0.23;100.00
8160;BME280;27404;52.398;9.646;2024-01-15T06:29:08;98875.06;;;-0.28;100.00
8160;BME280;27404;52.398;9.646;2024-01-15T06:31:34;98869.25;;;-0.25;100.00
8160;BME280;27404;52.398;9.646;2024-01-15T06:33:59;98865.16;;;-0.28;100.00
8160;BME280;27404;52.398;9.646;2024-01-15T06:36:25;98873.59;;;-0.18;100.00
8160;BME280;27404;52.398;9.646;2024-01-15T06:38:50;98870.09;;;-0.25;100.00
8160;BME280;27404;52.398;9.646;2024-01-15T06:41:16;98877.94;;;-0.23;100.00
8160;BME280;27404;52.398;9.646;2024-01-15T06:43:41;98878.38;;;-0.20;100.00
8160;BME280;27404;52.398;9.646;2024-01-15T06:46:07;98874.19;;;-0.09;100.00
8160;BME280;27404;52.398;9.646;2024-01-15T06:48:32;98880.00;;;-0.05;100.00
8160;BME280;27404;52.398;9.646;2024-01-15T06:50:58;98883.72;;;-0.06;100.00
8160;BME280;27404;52.398;9.646;2024-01-15T06:53:23;98879.56;;;-0.09;100.00
8160;BME280;27404;52.398;9.646;2024-01-15T06:55:48;98882.88;;;-0.07;100.00
8160;BME280;27404;52.398;9.646;2024-01-15T06:58:16;98877.72;;;-0.08;100.00
8160;BME280;27404;52.398;9.646;2024-01-15T07:00:41;98885.38;;;-0.05;100.00
8160;BME280;27404;52.398;9.646;2024-01-15T07:03:07;98881.84;;;-0.06;100.00
8160;BME280;27404;52.398;9.646;2024-01-15T07:05:33;98882.25;;;-0.02;100.00
8160;BME280;27404;52.398;9.646;2024-01-15T07:07:58;98875.03;;;-0.02;100.00
8160;BME280;27404;52.398;9.646;2024-01-15T07:10:24;98887.00;;;0.03;100.00
8160;BME280;27404;52.398;9.646;2024-01-15T07:12:49;98886.78;;;-0.03;100.00
8160;BME280;27404;52.398;9.646;2024-01-15T07:15:15;98897.13;;;0.01;100.00
8160;BME280;27404;52.398;9.646;2024-01-15T07:17:41;98899.41;;;-0.03;100.00
8160;BME280;27404;52.398;9.646;2024-01-15T07:20:07;98899.22;;;-0.08;100.00
8160;BME280;27404;52.398;9.646;2024-01-15T07:22:35;98897.16;;;-0.20;100.00
8160;BME280;27404;52.398;9.646;2024-01-15T07:25:00;98897.56;;;-0.16;100.00
8160;BME280;27404;52.398;9.646;2024-01-15T07:27:26;98898.59;;;-0.17;100.00
8160;BME280;27404;52.398;9.646;2024-01-15T07:29:51;98898.19;;;-0.14;100.00
8160;BME280;27404;52.398;9.646;2024-01-15T07:32:17;98907.47;;;-0.10;100.00
8160;BME280;27404;52.398;9.646;2024-01-15T07:34:43;98898.56;;;-0.04;100.00
8160;BME280;27404;52.398;9.646;2024-01-15T07:37:08;98897.34;;;-0.08;100.00
8160;BME280;27404;52.398;9.646;2024-01-15T07:39:34;98908.31;;;-0.16;100.00
8160;BME280;27404;52.398;9.646;2024-01-15T07:42:00;98913.91;;;-0.18;100.00
8160;BME280;27404;52.398;9.646;2024-01-15T07:44:25;98903.56;;;-0.14;100.00
8160;BME280;27404;52.398;9.646;2024-01-15T07:46:51;98916.38;;;-0.23;100.00
8160;BME280;27404;52.398;9.646;2024-01-15T07:49:16;98911.81;;;-0.16;100.00
8160;BME280;27404;52.398;9.646;2024-01-15T07:51:42;98904.38;;;-0.07;100.00
8160;BME280;27404;52.398;9.646;2024-01-15T07:54:10;98908.91;;;-0.14;100.00
8160;BME280;27404;52.398;9.646;2024-01-15T07:56:56;98899.03;;;-0.13;100.00
8160;BME280;27404;52.398;9.646;2024-01-15T07:59:22;98911.22;;;-0.18;100.00
8160;BME280;27404;52.398;9.646;2024-01-15T08:01:47;98909.13;;;-0.22;100.00
8160;BME280;27404;52.398;9.646;2024-01-15T08:04:13;98914.09;;;-0.26;100.00
8160;BME280;27404;52.398;9.646;2024-01-15T08:06:39;98918.44;;;-0.32;100.00
8160;BME280;27404;52.398;9.646;2024-01-15T08:09:04;98917.81;;;-0.40;100.00
8160;BME280;27404;52.398;9.646;2024-01-15T08:11:30;98918.88;;;-0.35;100.00
8160;BME280;27404;52.398;9.646;2024-01-15T08:13:57;98913.69;;;-0.43;100.00
8160;BME280;27404;52.398;9.646;2024-01-15T08:16:23;98923.38;;;-0.49;100.00
8160;BME280;27404;52.398;9.646;2024-01-15T08:18:50;98922.56;;;-0.49;100.00
8160;BME280;27404;52.398;9.646;2024-01-15T08:21:16;98920.72;;;-0.49;100.00
8160;BME280;27404;52.398;9.646;2024-01-15T08:23:41;98921.97;;;-0.51;100.00
8160;BME280;27404;52.398;9.646;2024-01-15T08:26:10;98910.19;;;-0.50;100.00
8160;BME280;27404;52.398;9.646;2024-01-15T08:28:35;98917.84;;;-0.47;100.00
8160;BME280;27404;52.398;9.646;2024-01-15T08:31:01;98918.44;;;-0.45;100.00
8160;BME280;27404;52.398;9.646;2024-01-15T08:33:28;98920.28;;;-0.46;100.00
8160;BME280;27404;52.398;9.646;2024-01-15T08:35:54;98915.13;;;-0.40;100.00
8160;BME280;27404;52.398;9.646;2024-01-15T08:38:20;98924.66;;;-0.38;100.00
8160;BME280;27404;52.398;9.646;2024-01-15T08:40:45;98925.44;;;-0.31;100.00
8160;BME280;27404;52.398;9.646;2024-01-15T08:43:11;98920.28;;;-0.25;100.00
8160;BME280;27404;52.398;9.646;2024-01-15T08:45:36;98931.44;;;-0.15;100.00
8160;BME280;27404;52.398;9.646;2024-01-15T08:48:02;98929.16;;;-0.05;100.00
8160;BME280;27404;52.398;9.646;2024-01-15T08:50:29;98925.81;;;0.13;100.00
8160;BME280;27404;52.398;9.646;2024-01-15T08:52:55;98929.53;;;0.33;100.00
8160;BME280;27404;52.398;9.646;2024-01-15T08:55:21;98925.59;;;0.28;100.00
8160;BME280;27404;52.398;9.646;2024-01-15T08:57:48;98925.81;;;0.20;100.00
8160;BME280;27404;52.398;9.646;2024-01-15T09:00:13;98918.53;;;0.34;100.00
8160;BME280;27404;52.398;9.646;2024-01-15T09:02:39;98913.19;;;0.27;100.00
8160;BME280;27404;52.398;9.646;2024-01-15T09:05:05;98921.44;;;0.26;100.00
8160;BME280;27404;52.398;9.646;2024-01-15T09:07:30;98916.50;;;0.23;100.00
8160;BME280;27404;52.398;9.646;2024-01-15T09:09:56;98911.13;;;0.23;100.00
8160;BME280;27404;52.398;9.646;2024-01-15T09:12:21;98906.41;;;0.18;100.00
8160;BME280;27404;52.398;9.646;2024-01-15T09:14:47;98913.84;;;0.16;100.00
8160;BME280;27404;52.398;9.646;2024-01-15T09:17:13;98917.13;;;0.25;100.00
8160;BME280;27404;52.398;9.646;2024-01-15T09:19:38;98908.00;;;0.33;100.00
8160;BME280;27404;52.398;9.646;2024-01-15T09:22:08;98923.53;;;0.24;100.00
8160;BME280;27404;52.398;9.646;2024-01-15T09:24:33;98918.94;;;0.44;100.00
8160;BME280;27404;52.398;9.646;2024-01-15T09:26:59;98924.09;;;0.39;100.00
8160;BME280;27404;52.398;9.646;2024-01-15T09:29:25;98915.16;;;0.52;100.00
8160;BME280;27404;52.398;9.646;2024-01-15T09:31:51;98926.09;;;0.57;100.00
8160;BME280;27404;52.398;9.646;2024-01-15T09:34:17;98920.31;;;0.61;100.00
8160;BME280;27404;52.398;9.646;2024-01-15T09:36:42;98926.94;;;0.58;100.00
8160;BME280;27404;52.398;9.646;2024-01-15T09:39:09;98930.63;;;0.64;100.00
8160;BME280;27404;52.398;9.646;2024-01-15T09:41:36;98927.13;;;0.63;100.00
8160;BME280;27404;52.398;9.646;2024-01-15T09:44:03;98931.25;;;0.66;100.00
8160;BME280;27404;52.398;9.646;2024-01-15T09:46:28;98925.91;;;0.59;100.00
8160;BME280;27404;52.398;9.646;2024-01-15T09:48:54;98925.50;;;0.55;100.00
8160;BME280;27404;52.398;9.646;2024-01-15T09:51:20;98932.56;;;0.50;100.00
8160;BME280;27404;52.398;9.646;2024-01-15T09:53:47;98932.56;;;0.50;100.00
8160;BME280;27404;52.398;9.646;2024-01-15T09:56:14;98937.91;;;0.56;100.00
8160;BME280;27404;52.398;9.646;2024-01-15T09:58:39;98947.19;;;0.61;100.00
8160;BME280;27404;52.398;9.646;2024-01-15T10:01:08;98949.69;;;0.55;100.00
8160;BME280;27404;52.398;9.646;2024-01-15T10:03:33;98953.00;;;0.57;100.00
8160;BME280;27404;52.398;9.646;2024-01-15T10:05:59;98951.16;;;0.58;100.00
8160;BME280;27404;52.398;9.646;2024-01-15T10:08:25;98953.41;;;0.54;100.00
8160;BME280;27404;52.398;9.646;2024-01-15T10:10:51;98950.97;;;0.53;100.00
8160;BME280;27404;52.398;9.646;2024-01-15T10:13:17;98943.66;;;0.67;100.00
8160;BME280;27404;52.398;9.646;2024-01-15T10:15:46;98950.34;;;0.51;100.00
8160;BME280;27404;52.398;9.646;2024-01-15T10:18:15;98952.66;;;0.40;100.00
8160;BME280;27404;52.398;9.646;2024-01-15T10:20:40;98954.69;;;0.45;100.00
8160;BME280;27404;52.398;9.646;2024-01-15T10:23:05;98947.22;;;0.47;100.00
8160;BME280;27404;52.398;9.646;2024-01-15T10:25:31;98956.50;;;0.65;100.00
8160;BME280;27404;52.398;9.646;2024-01-15T10:28:01;98947.16;;;0.67;100.00
8160;BME280;27404;52.398;9.646;2024-01-15T10:30:27;98950.59;;;0.88;100.00
8160;BME280;27404;52.398;9.646;2024-01-15T10:32:59;98942.97;;;0.85;100.00
8160;BME280;27404;52.398;9.646;2024-01-15T10:35:27;98943.69;;;1.06;100.00
8160;BME280;27404;52.398;9.646;2024-01-15T10:37:53;98940.94;;;1.19;100.00
8160;BME280;27404;52.398;9.646;2024-01-15T10:40:19;98923.88;;;1.32;100.00
8160;BME280;27404;52.398;9.646;2024-01-15T10:42:44;98940.38;;;1.42;100.00
8160;BME280;27404;52.398;9.646;2024-01-15T10:45:12;98930.41;;;1.43;100.00
8160;BME280;27404;52.398;9.646;2024-01-15T10:47:37;98940.44;;;1.29;100.00
8160;BME280;27404;52.398;9.646;2024-01-15T10:50:04;98925.84;;;1.11;100.00
8160;BME280;27404;52.398;9.646;2024-01-15T10:52:33;98932.56;;;0.95;100.00
8160;BME280;27404;52.398;9.646;2024-01-15T10:55:00;98937.13;;;0.95;100.00
8160;BME280;27404;52.398;9.646;2024-01-15T10:57:27;98935.31;;;0.82;100.00
8160;BME280;27404;52.398;9.646;2024-01-15T10:59:53;98935.06;;;0.90;100.00
8160;BME280;27404;52.398;9.646;2024-01-15T11:02:18;98920.19;;;0.87;100.00
8160;BME280;27404;52.398;9.646;2024-01-15T11:04:44;98930.88;;;1.01;100.00
8160;BME280;27404;52.398;9.646;2024-01-15T11:07:10;98930.59;;;1.16;100.00
8160;BME280;27404;52.398;9.646;2024-01-15T11:09:37;98909.25;;;1.21;100.00
8160;BME280;27404;52.398;9.646;2024-01-15T11:12:13;98926.63;;;1.25;100.00
8160;BME280;27404;52.398;9.646;2024-01-15T11:14:42;98933.09;;;1.43;100.00
8160;BME280;27404;52.398;9.646;2024-01-15T11:17:10;98907.72;;;1.32;100.00
8160;BME280;27404;52.398;9.646;2024-01-15T11:19:46;98913.78;;;1.21;100.00
8160;BME280;27404;52.398;9.646;2024-01-15T11:24:57;98905.41;;;1.36;100.00
8160;BME280;27404;52.398;9.646;2024-01-15T11:27:42;98908.31;;;1.34;100.00
8160;BME280;27404;52.398;9.646;2024-01-15T11:30:09;98906.59;;;1.46;100.00
8160;BME280;27404;52.398;9.646;2024-01-15T11:32:35;98902.50;;;1.37;100.00
8160;BME280;27404;52.398;9.646;2024-01-15T11:35:01;98901.91;;;1.35;100.00
8160;BME280;27404;52.398;9.646;2024-01-15T11:40:18;98906.03;;;1.63;100.00
8160;BME280;27404;52.398;9.646;2024-01-15T11:42:44;98911.25;;;1.32;100.00
8160;BME280;27404;52.398;9.646;2024-01-15T11:45:10;98905.78;;;1.14;100.00
8160;BME280;27404;52.398;9.646;2024-01-15T11:50:33;98902.56;;;1.30;100.00
8160;BME280;27404;52.398;9.646;2024-01-15T11:53:01;98910.50;;;1.44;100.00
8160;BME280;27404;52.398;9.646;2024-01-15T11:55:29;98910.84;;;1.29;100.00
8160;BME280;27404;52.398;9.646;2024-01-15T11:57:57;98906.41;;;1.41;100.00
8160;BME280;27404;52.398;9.646;2024-01-15T12:00:23;98898.09;;;1.43;100.00
8160;BME280;27404;52.398;9.646;2024-01-15T12:02:50;98893.81;;;1.35;100.00
8160;BME280;27404;52.398;9.646;2024-01-15T12:05:20;98905.47;;;1.29;100.00
8160;BME280;27404;52.398;9.646;2024-01-15T12:07:47;98900.59;;;1.12;100.00
8160;BME280;27404;52.398;9.646;2024-01-15T12:10:20;98899.16;;;1.10;100.00
8160;BME280;27404;52.398;9.646;2024-01-15T12:33:27;98898.81;;;1.31;100.00
8160;BME280;27404;52.398;9.646;2024-01-15T12:35:53;98896.44;;;1.42;100.00
8160;BME280;27404;52.398;9.646;2024-01-15T12:38:19;98902.16;;;1.27;100.00
8160;BME280;27404;52.398;9.646;2024-01-15T12:40:45;98900.63;;;1.38;100.00
8160;BME280;27404;52.398;9.646;2024-01-15T12:43:14;98908.16;;;1.29;100.00
8160;BME280;27404;52.398;9.646;2024-01-15T12:45:40;98898.22;;;1.29;100.00
8160;BME280;27404;52.398;9.646;2024-01-15T12:48:06;98893.47;;;1.25;100.00
8160;BME280;27404;52.398;9.646;2024-01-15T12:50:33;98897.78;;;1.32;100.00
8160;BME280;27404;52.398;9.646;2024-01-15T12:52:58;98891.31;;;1.33;100.00
8160;BME280;27404;52.398;9.646;2024-01-15T12:55:24;98903.53;;;1.36;100.00
8160;BME280;27404;52.398;9.646;2024-01-15T12:57:50;98908.41;;;1.21;100.00
8160;BME280;27404;52.398;9.646;2024-01-15T13:00:19;98910.63;;;1.30;100.00
8160;BME280;27404;52.398;9.646;2024-01-15T13:02:45;98911.06;;;1.27;100.00
8160;BME280;27404;52.398;9.646;2024-01-15T13:05:11;98922.91;;;1.20;100.00
8160;BME280;27404;52.398;9.646;2024-01-15T13:07:37;98907.97;;;1.24;100.00
8160;BME280;27404;52.398;9.646;2024-01-15T13:10:03;98903.63;;;1.23;100.00
8160;BME280;27404;52.398;9.646;2024-01-15T13:12:29;98901.53;;;1.31;100.00
8160;BME280;27404;52.398;9.646;2024-01-15T13:14:54;98901.16;;;1.21;100.00
8160;BME280;27404;52.398;9.646;2024-01-15T13:17:19;98917.56;;;1.13;100.00
8160;BME280;27404;52.398;9.646;2024-01-15T13:19:46;98908.47;;;1.14;100.00
8160;BME280;27404;52.398;9.646;2024-01-15T13:22:12;98910.13;;;1.08;100.00
8160;BME280;27404;52.398;9.646;2024-01-15T13:24:39;98910.38;;;1.07;100.00
8160;BME280;27404;52.398;9.646;2024-01-15T13:27:04;98908.06;;;1.10;100.00